createdAt,value
2018-07-24T00:01:09.640Z,10.27
2018-07-24T00:03:37.969Z,6.90
2018-07-24T00:06:07.341Z,10.97
2018-07-24T00:08:38.610Z,9.30
2018-07-24T00:11:07.458Z,6.13
2018-07-24T00:13:35.788Z,7.70
2018-07-24T00:16:04.145Z,8.23
2018-07-24T00:18:32.584Z,12.80
2018-07-24T00:21:00.920Z,9.37
2018-07-24T00:23:29.260Z,8.00
2018-07-24T00:25:57.648Z,7.90
2018-07-24T00:28:26.864Z,14.03
2018-07-24T00:30:55.197Z,8.90
2018-07-24T00:33:23.532Z,8.00
2018-07-24T00:35:51.882Z,9.10
2018-07-24T00:38:20.240Z,8.60
2018-07-24T00:40:49.138Z,8.80
2018-07-24T00:43:18.746Z,8.30
2018-07-24T00:45:47.128Z,11.87
2018-07-24T00:48:16.140Z,10.10
2018-07-24T00:50:44.525Z,11.20
2018-07-24T00:53:15.431Z,16.87
2018-07-24T00:55:44.494Z,9.10
2018-07-24T00:58:13.501Z,9.73
2018-07-24T01:00:41.844Z,9.80
2018-07-24T01:03:11.220Z,8.40
2018-07-24T01:05:39.568Z,10.20
2018-07-24T01:08:07.900Z,11.03
2018-07-24T01:10:36.236Z,10.67
2018-07-24T01:13:04.653Z,9.63
2018-07-24T01:15:33.218Z,9.30
2018-07-24T01:18:01.688Z,12.60
2018-07-24T01:20:30.857Z,14.27
2018-07-24T01:22:59.577Z,10.10
2018-07-24T01:25:27.927Z,10.70
2018-07-24T01:27:56.505Z,10.20
2018-07-24T01:30:24.858Z,9.83
2018-07-24T01:32:53.217Z,10.33
2018-07-24T01:35:21.591Z,10.67
2018-07-24T01:37:51.059Z,10.07
2018-07-24T01:40:20.419Z,12.50
2018-07-24T01:42:50.084Z,10.77
2018-07-24T01:45:19.667Z,8.77
2018-07-24T01:47:48.682Z,14.27
2018-07-24T01:50:17.679Z,14.87
2018-07-24T01:52:48.546Z,9.33
2018-07-24T01:55:17.505Z,11.07
2018-07-24T01:57:46.580Z,12.40
2018-07-24T02:00:16.308Z,15.77
2018-07-24T02:02:45.913Z,10.63
2018-07-24T02:05:15.566Z,10.20
2018-07-24T02:07:44.570Z,14.33
2018-07-24T02:10:13.005Z,13.60
2018-07-24T02:12:41.369Z,17.33
2018-07-24T02:15:09.739Z,14.60
2018-07-24T02:17:38.436Z,17.87
2018-07-24T02:20:06.881Z,13.70
2018-07-24T02:22:35.309Z,15.33
2018-07-24T02:25:03.668Z,17.77
2018-07-24T02:27:32.108Z,21.03
2018-07-24T02:30:00.489Z,24.73
2018-07-24T02:32:28.853Z,19.80
2018-07-24T02:34:57.205Z,20.80
2018-07-24T02:37:25.574Z,14.90
2018-07-24T02:39:53.917Z,16.67
2018-07-24T02:42:22.273Z,18.50
2018-07-24T02:44:50.647Z,16.23
2018-07-24T02:47:20.117Z,26.53
2018-07-24T02:49:49.654Z,20.20
2018-07-24T02:52:18.569Z,19.17
2018-07-24T02:54:47.573Z,22.10
2018-07-24T02:57:17.152Z,25.77
2018-07-24T02:59:46.621Z,21.00
2018-07-24T03:02:15.621Z,19.97
2018-07-24T03:04:44.689Z,16.10
2018-07-24T03:07:13.686Z,19.53
2018-07-24T03:09:42.065Z,19.30
2018-07-24T03:12:10.549Z,22.63
2018-07-24T03:14:38.903Z,19.63
2018-07-24T03:17:07.262Z,17.77
2018-07-24T03:19:35.613Z,16.20
2018-07-24T03:22:04.002Z,15.73
2018-07-24T03:24:33.237Z,20.20
2018-07-24T03:27:01.596Z,17.07
2018-07-24T03:29:29.954Z,17.57
2018-07-24T03:31:58.325Z,16.80
2018-07-24T03:34:26.681Z,15.57
2018-07-24T03:36:55.088Z,15.07
2018-07-24T03:39:23.441Z,15.27
2018-07-24T03:41:51.794Z,17.47
2018-07-24T03:44:21.433Z,19.10
2018-07-24T03:46:51.138Z,19.00
2018-07-24T03:49:20.160Z,15.00
2018-07-24T03:51:49.167Z,11.27
2018-07-24T03:54:18.787Z,18.73
2018-07-24T03:56:47.133Z,17.20
2018-07-24T03:59:16.520Z,16.73
2018-07-24T04:01:45.795Z,19.10
2018-07-24T04:04:14.706Z,14.80
2018-07-24T04:06:43.114Z,15.60
2018-07-24T04:09:12.102Z,15.63
2018-07-24T04:11:40.781Z,16.37
2018-07-24T04:14:09.177Z,18.30
2018-07-24T04:16:37.562Z,19.70
2018-07-24T04:19:05.929Z,14.83
2018-07-24T04:21:34.347Z,16.23
2018-07-24T04:24:02.724Z,16.30
2018-07-24T04:26:31.138Z,15.27
2018-07-24T04:28:59.497Z,17.23
2018-07-24T04:31:27.885Z,23.07
2018-07-24T04:33:56.242Z,22.47
2018-07-24T04:36:24.698Z,17.00
2018-07-24T04:38:53.070Z,16.83
2018-07-24T04:41:21.451Z,18.00
2018-07-24T04:43:50.331Z,17.20
2018-07-24T04:46:20.709Z,15.20
2018-07-24T04:48:50.082Z,17.63
2018-07-24T04:51:19.750Z,15.73
2018-07-24T04:53:48.114Z,15.63
2018-07-24T04:56:16.474Z,27.80
2018-07-24T04:58:45.509Z,19.50
2018-07-24T05:01:14.863Z,17.87
2018-07-24T05:03:43.635Z,14.70
2018-07-24T05:06:11.998Z,15.10
2018-07-24T05:08:40.382Z,19.83
2018-07-24T05:11:09.782Z,18.03
2018-07-24T05:13:38.157Z,15.70
2018-07-24T05:16:06.573Z,20.23
2018-07-24T05:18:35.226Z,22.43
2018-07-24T05:21:03.655Z,19.70
2018-07-24T05:23:32.008Z,21.13
2018-07-24T05:26:00.465Z,22.53
2018-07-24T05:28:28.826Z,25.63
2018-07-24T05:30:58.123Z,25.60
2018-07-24T05:33:26.514Z,20.33
2018-07-24T05:35:54.907Z,23.30
2018-07-24T05:38:23.305Z,21.30
2018-07-24T05:40:52.157Z,20.03
2018-07-24T05:43:20.804Z,19.97
2018-07-24T05:45:50.817Z,28.50
2018-07-24T05:48:19.927Z,24.43
2018-07-24T05:50:50.499Z,16.07
2018-07-24T05:53:19.885Z,18.33
2018-07-24T05:55:48.276Z,18.03
2018-07-24T05:58:16.673Z,11.60
2018-07-24T06:00:45.909Z,16.70
2018-07-24T06:03:14.767Z,10.90
2018-07-24T06:05:43.705Z,12.20
2018-07-24T06:08:12.054Z,11.10
2018-07-24T06:10:40.444Z,12.30
2018-07-24T06:13:08.869Z,9.20
2018-07-24T06:15:37.235Z,15.70
2018-07-24T06:18:06.202Z,7.70
2018-07-24T06:20:34.581Z,9.57
2018-07-24T06:23:02.973Z,5.73
2018-07-24T06:25:31.391Z,7.70
2018-07-24T06:27:59.775Z,9.10
2018-07-24T06:30:28.469Z,7.70
2018-07-24T06:32:57.017Z,7.23
2018-07-24T06:35:25.373Z,15.30
2018-07-24T06:37:53.730Z,14.43
2018-07-24T06:40:22.089Z,12.10
2018-07-24T06:42:50.446Z,8.40
2018-07-24T06:45:20.239Z,9.83
2018-07-24T06:47:49.413Z,8.90
2018-07-24T06:50:18.864Z,10.67
2018-07-24T06:52:47.249Z,9.13
2018-07-24T06:55:16.617Z,7.77
2018-07-24T06:57:45.914Z,6.37
2018-07-24T07:00:14.814Z,7.43
2018-07-24T07:02:43.202Z,10.40
2018-07-24T07:05:11.649Z,5.47
2018-07-24T07:07:40.551Z,7.47
2018-07-24T07:10:09.175Z,8.40
2018-07-24T07:12:37.584Z,7.50
2018-07-24T07:15:06.765Z,10.33
2018-07-24T07:17:35.129Z,9.40
2018-07-24T07:20:03.532Z,8.30
2018-07-24T07:22:31.923Z,14.20
2018-07-24T07:25:00.338Z,13.33
2018-07-24T07:27:28.703Z,14.17
2018-07-24T07:29:57.086Z,15.00
2018-07-24T07:32:25.544Z,9.03
2018-07-24T07:34:54.905Z,11.60
2018-07-24T07:37:23.263Z,9.53
2018-07-24T07:39:51.606Z,6.70
2018-07-24T07:42:21.106Z,5.97
2018-07-24T07:44:50.422Z,9.53
2018-07-24T07:47:19.238Z,10.90
2018-07-24T07:49:49.416Z,5.43
2018-07-24T07:53:42.361Z,8.97
2018-07-24T07:56:10.705Z,4.40
2018-07-24T07:58:39.076Z,7.07
2018-07-24T08:01:07.473Z,4.93
2018-07-24T08:03:35.832Z,5.27
2018-07-24T08:06:04.277Z,7.87
2018-07-24T08:08:32.663Z,11.33
2018-07-24T08:11:01.033Z,9.90
2018-07-24T08:13:29.410Z,7.93
2018-07-24T08:15:57.815Z,5.10
2018-07-24T08:18:26.177Z,7.87
2018-07-24T08:20:54.537Z,5.07
2018-07-24T08:23:23.008Z,8.60
2018-07-24T08:25:51.359Z,6.10
2018-07-24T08:28:20.826Z,7.43
2018-07-24T08:30:50.173Z,16.77
2018-07-24T08:33:19.085Z,7.50
2018-07-24T08:35:48.857Z,5.67
2018-07-24T08:38:17.217Z,6.70
2018-07-24T08:40:47.542Z,7.33
2018-07-24T08:43:18.250Z,5.90
2018-07-24T08:45:48.090Z,15.90
2018-07-24T08:48:16.514Z,8.90
2018-07-24T08:50:45.779Z,6.07
2018-07-24T08:53:14.931Z,6.00
2018-07-24T08:55:43.572Z,6.03
2018-07-24T08:58:11.699Z,6.40
2018-07-24T09:00:40.078Z,5.70
2018-07-24T09:03:08.507Z,7.17
2018-07-24T09:05:36.861Z,5.90
2018-07-24T09:08:05.245Z,4.80
2018-07-24T09:10:33.689Z,4.63
2018-07-24T09:13:02.097Z,5.93
2018-07-24T09:15:30.531Z,5.77
2018-07-24T09:17:58.885Z,7.90
2018-07-24T09:20:27.270Z,4.37
2018-07-24T09:22:55.629Z,6.17
2018-07-24T09:25:24.007Z,4.20
2018-07-24T09:27:52.373Z,4.37
2018-07-24T09:30:20.706Z,6.37
2018-07-24T09:32:50.123Z,5.10
2018-07-24T09:35:19.416Z,4.70
2018-07-24T09:37:48.441Z,5.17
2018-07-24T09:40:18.041Z,6.80
2018-07-24T09:42:46.430Z,4.20
2018-07-24T09:45:15.404Z,7.20
2018-07-24T09:47:44.890Z,6.80
2018-07-24T09:50:13.310Z,8.67
2018-07-24T09:52:41.682Z,5.07
2018-07-24T09:55:10.074Z,5.03
2018-07-24T09:57:38.449Z,15.27
2018-07-24T10:00:07.985Z,7.13
2018-07-24T10:02:36.387Z,4.43
2018-07-24T10:05:04.798Z,10.70
2018-07-24T10:07:33.392Z,10.20
2018-07-24T10:10:01.763Z,11.53
2018-07-24T10:12:30.145Z,6.00
2018-07-24T10:14:58.533Z,4.37
2018-07-24T10:17:26.913Z,6.60
2018-07-24T10:19:55.346Z,7.13
2018-07-24T10:22:23.774Z,10.07
2018-07-24T10:24:52.137Z,11.43
2018-07-24T10:27:20.507Z,7.30
2018-07-24T10:29:49.543Z,13.10
2018-07-24T10:32:19.546Z,16.77
2018-07-24T10:34:49.553Z,13.83
2018-07-24T10:37:18.561Z,11.60
2018-07-24T10:39:47.654Z,9.63
2018-07-24T10:42:17.818Z,5.17
2018-07-24T10:44:46.181Z,21.03
2018-07-24T10:47:15.171Z,9.70
2018-07-24T10:49:43.961Z,5.03
2018-07-24T10:52:12.489Z,3.57
2018-07-24T10:54:40.856Z,5.37
2018-07-24T10:57:09.193Z,4.10
2018-07-24T10:59:37.549Z,4.43
2018-07-24T11:02:05.924Z,3.40
2018-07-24T11:04:34.281Z,4.33
2018-07-24T11:07:02.673Z,4.47
2018-07-24T11:09:31.118Z,6.07
2018-07-24T11:11:59.460Z,4.53
2018-07-24T11:14:27.840Z,4.13
2018-07-24T11:16:56.259Z,5.60
2018-07-24T11:19:24.622Z,3.60
2018-07-24T11:21:53.033Z,3.20
2018-07-24T11:24:21.399Z,4.30
2018-07-24T11:26:50.794Z,3.57
2018-07-24T11:29:20.414Z,6.57
2018-07-24T11:31:49.665Z,6.67
2018-07-24T11:34:18.825Z,5.60
2018-07-24T11:36:47.201Z,5.83
2018-07-24T11:39:16.801Z,4.93
2018-07-24T11:41:46.109Z,4.23
2018-07-24T11:44:14.897Z,4.33
2018-07-24T11:46:43.856Z,3.50
2018-07-24T11:49:12.220Z,9.30
2018-07-24T11:51:40.618Z,5.80
2018-07-24T11:54:08.989Z,8.33
2018-07-24T11:56:37.521Z,3.80
2018-07-24T11:59:05.886Z,6.63
2018-07-24T12:01:34.234Z,6.33
2018-07-24T12:04:02.610Z,3.40
2018-07-24T12:06:30.957Z,6.67
2018-07-24T12:08:59.297Z,3.33
2018-07-24T12:11:27.674Z,5.37
2018-07-24T12:13:56.025Z,5.37
2018-07-24T12:16:24.611Z,3.93
2018-07-24T12:18:53.002Z,4.67
2018-07-24T12:21:21.418Z,3.73
2018-07-24T12:23:50.418Z,5.13
2018-07-24T12:26:20.122Z,3.23
2018-07-24T12:28:48.786Z,5.30
2018-07-24T12:31:17.161Z,3.27
2018-07-24T12:33:46.605Z,5.33
2018-07-24T12:36:18.089Z,4.03
2018-07-24T12:38:47.303Z,4.00
2018-07-24T12:41:16.506Z,5.97
2018-07-24T12:43:45.849Z,3.13
2018-07-24T12:46:15.099Z,3.40
2018-07-24T12:48:43.960Z,4.23
2018-07-24T12:51:12.394Z,7.27
2018-07-24T12:53:40.755Z,4.53
2018-07-24T12:56:09.134Z,4.27
2018-07-24T12:58:37.546Z,3.30
2018-07-24T13:01:05.901Z,4.43
2018-07-24T13:03:34.282Z,2.87
2018-07-24T13:06:02.638Z,5.13
2018-07-24T13:08:30.992Z,3.07
2018-07-24T13:10:59.486Z,3.77
2018-07-24T13:13:27.821Z,4.97
2018-07-24T13:15:56.220Z,3.67
2018-07-24T13:18:24.576Z,7.87
2018-07-24T13:20:52.962Z,3.30
2018-07-24T13:23:21.306Z,3.20
2018-07-24T13:25:50.929Z,4.83
2018-07-24T13:28:20.852Z,7.57
2018-07-24T13:30:50.115Z,13.43
2018-07-24T13:33:19.514Z,2.97
2018-07-24T13:35:48.647Z,2.93
2018-07-24T13:38:17.867Z,8.40
2018-07-24T13:40:48.571Z,4.07
2018-07-24T13:43:17.984Z,3.50
2018-07-24T13:45:48.226Z,2.60
2018-07-24T13:48:17.157Z,4.10
2018-07-24T13:50:46.643Z,6.20
2018-07-24T13:53:15.034Z,3.20
2018-07-24T13:55:43.460Z,4.60
2018-07-24T13:58:11.830Z,2.60
2018-07-24T14:00:40.225Z,3.47
2018-07-24T14:03:08.597Z,2.93
2018-07-24T14:05:36.979Z,3.10
2018-07-24T14:08:05.377Z,5.73
2018-07-24T14:10:33.762Z,3.50
2018-07-24T14:13:02.140Z,4.30
2018-07-24T14:15:30.501Z,3.50
2018-07-24T14:17:58.864Z,5.17
2018-07-24T14:20:27.250Z,4.33
2018-07-24T14:22:55.622Z,4.53
2018-07-24T14:25:23.987Z,2.47
2018-07-24T14:27:52.331Z,2.63
2018-07-24T14:30:20.700Z,2.80
2018-07-24T14:32:50.476Z,4.40
2018-07-24T14:35:20.173Z,2.90
2018-07-24T14:37:49.660Z,3.23
2018-07-24T14:40:18.617Z,6.00
2018-07-24T14:42:47.775Z,2.70
2018-07-24T14:45:17.182Z,3.60
2018-07-24T14:47:46.690Z,3.53
2018-07-24T14:50:15.061Z,2.50
2018-07-24T14:52:44.060Z,4.47
2018-07-24T14:55:12.521Z,5.23
2018-07-24T14:57:40.862Z,4.97
2018-07-24T15:00:09.273Z,5.80
2018-07-24T15:02:37.683Z,4.73
2018-07-24T15:05:06.238Z,3.83
2018-07-24T15:07:34.614Z,3.10
2018-07-24T15:10:03.025Z,2.23
2018-07-24T15:12:31.410Z,4.03
2018-07-24T15:14:59.814Z,7.67
2018-07-24T15:17:28.202Z,3.70
2018-07-24T15:19:56.629Z,5.07
2018-07-24T15:22:25.147Z,3.37
2018-07-24T15:24:53.526Z,4.80
2018-07-24T15:27:22.789Z,2.90
2018-07-24T15:29:51.141Z,4.00
2018-07-24T15:32:20.465Z,2.20
2018-07-24T15:34:49.829Z,4.80
2018-07-24T15:37:18.268Z,3.60
2018-07-24T15:39:46.691Z,2.67
2018-07-24T15:42:15.603Z,3.20
2018-07-24T15:44:44.975Z,2.43
2018-07-24T15:47:14.334Z,2.50
2018-07-24T15:49:42.714Z,4.13
2018-07-24T15:52:11.224Z,3.23
2018-07-24T15:54:39.539Z,2.33
2018-07-24T15:57:07.946Z,2.57
2018-07-24T15:59:36.345Z,2.33
2018-07-24T16:02:04.738Z,6.13
2018-07-24T16:04:33.095Z,3.73
2018-07-24T16:07:01.470Z,3.03
2018-07-24T16:09:29.839Z,2.57
2018-07-24T16:11:58.229Z,4.47
2018-07-24T16:14:26.594Z,3.00
2018-07-24T16:16:55.053Z,5.63
2018-07-24T16:19:23.418Z,3.40
2018-07-24T16:21:51.807Z,3.00
2018-07-24T16:24:20.177Z,10.40
2018-07-24T16:26:49.159Z,4.67
2018-07-24T16:29:18.777Z,3.10
2018-07-24T16:31:47.162Z,4.83
2018-07-24T16:34:16.410Z,2.97
2018-07-24T16:36:45.136Z,5.00
2018-07-24T16:39:13.567Z,4.00
2018-07-24T16:41:42.236Z,5.30
2018-07-24T16:44:10.613Z,5.13
2018-07-24T16:46:39.020Z,4.57
2018-07-24T16:49:07.383Z,5.43
2018-07-24T16:51:35.778Z,3.10
2018-07-24T16:54:04.183Z,6.80
2018-07-24T16:56:32.529Z,3.63
2018-07-24T16:59:00.910Z,3.00
2018-07-24T17:01:29.302Z,5.20
2018-07-24T17:03:57.685Z,5.90
2018-07-24T17:06:26.054Z,5.00
2018-07-24T17:08:54.430Z,3.20
2018-07-24T17:11:22.792Z,2.97
2018-07-24T17:13:51.181Z,2.83
2018-07-24T17:16:21.568Z,2.83
2018-07-24T17:18:50.226Z,3.20
2018-07-24T17:21:19.449Z,2.90
2018-07-24T17:23:49.079Z,3.07
2018-07-24T17:26:18.932Z,5.50
2018-07-24T17:28:47.622Z,3.00
2018-07-24T17:31:16.696Z,3.40
2018-07-24T17:33:46.088Z,3.87
2018-07-24T17:36:15.221Z,6.50
2018-07-24T17:38:43.639Z,6.53
2018-07-24T17:41:11.997Z,4.43
2018-07-24T17:43:40.429Z,4.17
2018-07-24T17:46:08.777Z,6.17
2018-07-24T17:48:37.133Z,2.60
2018-07-24T17:51:05.570Z,3.13
2018-07-24T17:53:33.935Z,5.00
2018-07-24T17:56:02.336Z,3.47
2018-07-24T17:58:30.716Z,4.00
2018-07-24T18:00:59.119Z,3.10
2018-07-24T18:03:27.487Z,3.13
2018-07-24T18:05:55.833Z,3.43
2018-07-24T18:08:24.181Z,3.00
2018-07-24T18:10:52.538Z,3.90
2018-07-24T18:13:20.880Z,5.37
2018-07-24T18:15:50.639Z,3.53
2018-07-24T18:18:20.692Z,5.53
2018-07-24T18:20:50.251Z,4.83
2018-07-24T18:23:19.794Z,7.53
2018-07-24T18:25:48.148Z,5.27
2018-07-24T18:28:17.226Z,4.10
2018-07-24T18:30:46.292Z,2.90
2018-07-24T18:33:14.689Z,5.50
2018-07-24T18:35:43.057Z,6.13
2018-07-24T18:38:11.424Z,3.47
2018-07-24T18:40:39.789Z,3.43
2018-07-24T18:43:08.162Z,3.90
2018-07-24T18:45:36.521Z,4.23
2018-07-24T18:48:05.148Z,7.40
2018-07-24T18:50:33.690Z,3.33
2018-07-24T18:53:02.100Z,3.03
2018-07-24T18:55:30.481Z,3.40
2018-07-24T18:57:59.001Z,3.23
2018-07-24T19:00:27.503Z,7.03
2018-07-24T19:02:56.087Z,6.00
2018-07-24T19:05:25.198Z,4.60
2018-07-24T19:07:53.991Z,3.40
2018-07-24T19:10:22.757Z,3.90
2018-07-24T19:12:51.568Z,5.87
2018-07-24T19:15:21.374Z,7.00
2018-07-24T19:17:51.260Z,7.10
2018-07-24T19:20:21.057Z,4.33
2018-07-24T19:22:51.185Z,10.53
2018-07-24T19:25:22.305Z,11.37
2018-07-24T19:27:51.301Z,8.10
2018-07-24T19:30:21.226Z,4.40
2018-07-24T19:32:50.966Z,5.73
2018-07-24T19:35:20.830Z,7.20
2018-07-24T19:37:50.095Z,5.60
2018-07-24T19:40:19.801Z,4.13
2018-07-24T19:42:49.638Z,10.40
2018-07-24T19:45:18.345Z,7.60
2018-07-24T19:47:48.255Z,8.57
2018-07-24T19:50:19.581Z,5.37
2018-07-24T19:52:50.697Z,7.73
2018-07-24T19:55:20.203Z,4.07
2018-07-24T19:57:50.288Z,4.80
2018-07-24T20:00:19.687Z,4.60
2018-07-24T20:02:49.389Z,6.70
2018-07-24T20:05:18.208Z,3.90
2018-07-24T20:07:48.725Z,6.40
2018-07-24T20:10:18.599Z,5.90
2018-07-24T20:12:48.721Z,7.80
2018-07-24T20:15:19.633Z,8.60
2018-07-24T20:17:50.022Z,6.63
2018-07-24T20:20:19.783Z,5.90
2018-07-24T20:22:49.694Z,4.70
2018-07-24T20:25:19.831Z,6.93
2018-07-24T20:27:49.563Z,5.27
2018-07-24T20:30:18.345Z,4.20
2018-07-24T20:32:48.873Z,8.10
2018-07-24T20:35:20.742Z,6.00
2018-07-24T20:37:49.949Z,7.13
2018-07-24T20:40:19.473Z,6.57
2018-07-24T20:42:49.506Z,5.40
2018-07-24T20:45:18.943Z,4.50
2018-07-24T20:47:48.363Z,5.20
2018-07-24T20:50:18.548Z,7.60
2018-07-24T20:52:47.114Z,6.43
2018-07-24T20:55:16.613Z,4.87
2018-07-24T20:57:45.831Z,4.90
2018-07-24T21:00:14.939Z,5.37
2018-07-24T21:02:43.401Z,5.53
2018-07-24T21:05:11.926Z,5.63
2018-07-24T21:07:47.523Z,7.10
2018-07-24T21:10:18.681Z,11.50
2018-07-24T21:12:49.408Z,5.27
2018-07-24T21:15:19.410Z,5.20
2018-07-24T21:17:48.122Z,5.50
2018-07-24T21:20:17.622Z,6.13
2018-07-24T21:22:48.607Z,5.10
2018-07-24T21:25:17.749Z,5.40
2018-07-24T21:27:48.428Z,7.00
2018-07-24T21:30:18.184Z,7.63
2018-07-24T21:32:46.573Z,6.17
2018-07-24T21:35:15.481Z,6.33
2018-07-24T21:37:44.269Z,5.87
2018-07-24T21:40:12.952Z,8.00
2018-07-24T21:42:41.325Z,8.20
2018-07-24T21:45:09.737Z,9.33
2018-07-24T21:47:38.089Z,7.13
2018-07-24T21:50:06.497Z,5.77
2018-07-24T21:52:34.961Z,6.27
2018-07-24T21:55:03.355Z,7.70
2018-07-24T21:57:31.466Z,5.47
2018-07-24T21:59:59.805Z,8.70
2018-07-24T22:02:28.181Z,6.23
2018-07-24T22:04:56.590Z,5.80
2018-07-24T22:07:24.968Z,6.00
2018-07-24T22:09:53.315Z,10.03
2018-07-24T22:12:21.686Z,5.93
2018-07-24T22:14:51.191Z,7.40
2018-07-24T22:17:20.170Z,4.47
2018-07-24T22:19:49.614Z,6.30
2018-07-24T22:22:19.597Z,8.37
2018-07-24T22:24:48.689Z,8.70
2018-07-24T22:27:17.906Z,4.97
2018-07-24T22:29:47.238Z,9.63
2018-07-24T22:32:16.477Z,9.13
2018-07-24T22:34:44.833Z,5.67
2018-07-24T22:37:13.195Z,7.40
2018-07-24T22:39:41.533Z,9.10
2018-07-24T22:42:09.893Z,6.80
2018-07-24T22:44:38.255Z,9.10
2018-07-24T22:47:06.607Z,5.23
2018-07-24T22:49:34.954Z,5.47
2018-07-24T22:52:03.289Z,8.40
2018-07-24T22:54:31.642Z,6.43
2018-07-24T22:57:00.010Z,7.43
2018-07-24T22:59:28.413Z,12.33
2018-07-24T23:01:56.819Z,7.10
2018-07-24T23:04:25.178Z,9.03
2018-07-24T23:06:53.613Z,6.57
2018-07-24T23:09:21.953Z,8.77
2018-07-24T23:11:50.301Z,7.70
2018-07-24T23:14:19.293Z,7.30
2018-07-24T23:16:48.878Z,6.40
2018-07-24T23:19:17.258Z,6.30
2018-07-24T23:21:46.678Z,5.93
2018-07-24T23:24:15.409Z,14.23
2018-07-24T23:26:43.831Z,6.37
2018-07-24T23:29:12.184Z,6.60
2018-07-24T23:31:40.548Z,8.63
2018-07-24T23:34:08.889Z,8.90
2018-07-24T23:36:37.234Z,6.10
2018-07-24T23:39:07.924Z,7.20
2018-07-24T23:41:36.297Z,6.27
2018-07-24T23:44:04.649Z,7.67
2018-07-24T23:46:32.998Z,6.77
2018-07-24T23:49:01.398Z,8.40
2018-07-24T23:51:30.098Z,7.37
2018-07-24T23:53:58.458Z,7.30
2018-07-24T23:56:26.819Z,8.83
2018-07-24T23:58:55.200Z,12.47
